Time;durP1;ratioP1;P1;durP2;ratioP2;P2;SDS_P1;SDS_P2;PMS_P1;PMS_P2;Temp;Humidity;BMP_temperature;BMP_pressure;BME280_temperature;BME280_humidity;BME280_pressure;Samples;Min_cycle;Max_cycle;Signal;HPM_P1;HPM_P2
2023/02/10 00:01:53;;;;;;;85.10;31.10;;;;;;;-1.97;72.61;101942.06;106977;1271;24354;-57
2023/02/10 00:04:24;;;;;;;78.10;30.50;;;;;;;-1.98;72.77;101943.79;107022;1257;22616;-58
2023/02/10 00:06:55;;;;;;;80.00;32.40;;;;;;;-1.98;72.61;101945.48;107029;1266;25647;-56
2023/02/10 00:09:26;;;;;;;89.40;31.80;;;;;;;-2.02;72.67;101942.19;107085;1257;22883;-55
2023/02/10 00:11:58;;;;;;;89.30;33.10;;;;;;;-2.03;72.46;101945.27;106946;1272;22574;-56
2023/02/10 00:14:30;;;;;;;83.20;31.30;;;;;;;-2.06;72.34;101947.63;107047;1263;22634;-56
2023/02/10 00:17:02;;;;;;;82.80;30.60;;;;;;;-2.11;72.20;101950.07;107117;1268;24311;-56
2023/02/10 00:19:33;;;;;;;75.20;29.90;;;;;;;-2.15;72.49;101950.68;106967;1271;22675;-55
2023/02/10 00:22:04;;;;;;;67.90;26.70;;;;;;;-2.20;72.32;101947.34;107020;1264;22664;-57
2023/02/10 00:24:36;;;;;;;63.00;24.20;;;;;;;-2.25;72.38;101949.09;106988;1256;22716;-54
2023/02/10 00:27:06;;;;;;;59.80;22.10;;;;;;;-2.31;72.24;101949.16;107057;1263;22793;-55
2023/02/10 00:29:37;;;;;;;54.80;21.90;;;;;;;-2.35;72.23;101956.94;106992;1269;22773;-57
2023/02/10 00:32:10;;;;;;;47.50;18.90;;;;;;;-2.37;72.37;101962.90;106950;1263;24447;-56
2023/02/10 00:34:41;;;;;;;45.70;16.20;;;;;;;-2.41;72.27;101961.77;107118;1270;23745;-55
2023/02/10 00:37:12;;;;;;;50.60;17.80;;;;;;;-2.47;72.28;101958.88;106984;1271;22619;-56
2023/02/10 00:39:45;;;;;;;46.20;17.80;;;;;;;-2.49;72.52;101957.35;106932;1267;22848;-56
2023/02/10 00:42:16;;;;;;;46.60;16.30;;;;;;;-2.55;72.55;101955.34;106974;1270;22570;-56
2023/02/10 00:44:47;;;;;;;43.50;16.60;;;;;;;-2.55;72.80;101954.63;106981;1270;22619;-59
2023/02/10 00:47:18;;;;;;;45.80;16.70;;;;;;;-2.55;72.73;101959.23;106997;1264;22566;-55
2023/02/10 00:49:49;;;;;;;45.70;17.90;;;;;;;-2.55;73.10;101959.77;107024;1272;22714;-57
2023/02/10 00:52:20;;;;;;;44.20;16.20;;;;;;;-2.59;72.82;101956.14;107049;1264;25346;-56
2023/02/10 00:54:51;;;;;;;47.00;18.10;;;;;;;-2.61;73.12;101961.80;107040;1271;24134;-56
2023/02/10 00:57:22;;;;;;;47.30;16.60;;;;;;;-2.61;73.19;101954.69;106953;1267;25475;-57
2023/02/10 00:59:53;;;;;;;56.00;19.50;;;;;;;-2.62;73.13;101957.86;107011;1272;25552;-57
2023/02/10 01:02:25;;;;;;;64.80;22.20;;;;;;;-2.63;73.29;101955.64;107056;1264;23148;-57
2023/02/10 01:04:56;;;;;;;60.20;22.80;;;;;;;-2.65;73.22;101957.85;107034;1270;22604;-57
2023/02/10 01:07:29;;;;;;;58.20;22.70;;;;;;;-2.68;72.95;101953.70;106976;1264;22656;-57
2023/02/10 01:10:00;;;;;;;50.20;19.50;;;;;;;-2.75;72.66;101957.73;107063;1259;22758;-56
2023/02/10 01:12:31;;;;;;;50.00;20.50;;;;;;;-2.82;72.73;101958.61;107001;1271;22561;-56
2023/02/10 01:15:02;;;;;;;51.20;19.00;;;;;;;-2.88;72.72;101956.80;106997;1267;22544;-57
2023/02/10 01:17:33;;;;;;;52.70;19.70;;;;;;;-2.93;72.84;101953.69;107014;1270;26828;-55
2023/02/10 01:20:05;;;;;;;47.80;18.40;;;;;;;-2.97;72.83;101947.95;107039;1271;24204;-58
2023/02/10 01:22:36;;;;;;;48.70;18.30;;;;;;;-3.01;72.92;101947.92;107115;1269;22640;-54
2023/02/10 01:25:08;;;;;;;44.70;17.70;;;;;;;-3.04;73.01;101946.64;107113;1264;23144;-57
2023/02/10 01:27:39;;;;;;;45.60;19.40;;;;;;;-3.08;72.88;101942.92;107060;1264;22571;-58
2023/02/10 01:30:12;;;;;;;46.90;18.40;;;;;;;-3.08;73.17;101941.21;106955;1258;24204;-58
2023/02/10 01:32:43;;;;;;;48.40;17.00;;;;;;;-3.06;73.33;101934.02;106969;1253;22636;-54
2023/02/10 01:35:14;;;;;;;47.20;18.10;;;;;;;-3.04;73.51;101937.05;106935;1272;23143;-59
2023/02/10 01:37:45;;;;;;;42.20;17.70;;;;;;;-3.04;73.36;101941.34;107031;1265;23150;-57
2023/02/10 01:40:17;;;;;;;46.10;17.10;;;;;;;-3.04;73.39;101939.45;107125;1269;23948;-55
2023/02/10 01:42:48;;;;;;;44.60;16.50;;;;;;;-3.05;73.40;101943.33;107112;1264;22566;-57
2023/02/10 01:45:24;;;;;;;46.60;17.80;;;;;;;-3.08;73.48;101936.86;107054;1268;24257;-58
2023/02/10 01:47:57;;;;;;;52.00;18.20;;;;;;;-3.12;73.34;101929.87;107088;1263;24317;-57
2023/02/10 01:50:31;;;;;;;56.30;21.10;;;;;;;-3.16;73.48;101924.42;107122;1271;24150;-55
2023/02/10 01:53:02;;;;;;;53.70;19.50;;;;;;;-3.18;73.58;101926.71;107313;1270;24147;-57
2023/02/10 01:55:36;;;;;;;54.70;20.90;;;;;;;-3.17;73.68;101925.34;107091;1269;23141;-56
2023/02/10 01:58:11;;;;;;;54.50;20.30;;;;;;;-3.18;73.65;101923.22;107400;1264;23011;-56
2023/02/10 02:00:42;;;;;;;54.00;22.20;;;;;;;-3.19;73.77;101919.52;107007;1267;22865;-55
2023/02/10 02:03:14;;;;;;;51.00;20.80;;;;;;;-3.20;73.78;101916.98;106937;1269;22677;-56
2023/02/10 02:05:46;;;;;;;54.60;21.20;;;;;;;-3.22;73.60;101925.89;107107;1264;22604;-54
2023/02/10 02:08:20;;;;;;;56.60;20.30;;;;;;;-3.30;73.48;101927.16;107022;1263;25477;-57
2023/02/10 02:11:01;;;;;;;51.20;21.00;;;;;;;-3.33;73.71;101930.41;107214;1259;22539;-55
2023/02/10 02:14:00;;;;;;;54.40;21.70;;;;;;;-3.36;73.81;101935.23;106952;1259;24283;-56
2023/02/10 02:16:42;;;;;;;59.50;23.80;;;;;;;-3.39;73.68;101946.15;106940;1271;26931;-55
2023/02/10 02:19:36;;;;;;;55.00;21.80;;;;;;;-3.42;73.72;101950.18;107078;1271;22580;-56
2023/02/10 02:22:33;;;;;;;64.30;23.70;;;;;;;-3.45;73.96;101942.98;106933;1270;22571;-58
2023/02/10 02:25:30;;;;;;;54.90;22.50;;;;;;;-3.48;74.00;101938.37;106975;1267;25436;-57
2023/02/10 02:28:26;;;;;;;55.60;21.50;;;;;;;-3.53;73.64;101934.38;106985;1269;22813;-57
2023/02/10 02:31:41;;;;;;;60.00;24.20;;;;;;;-3.57;73.97;101926.55;106798;1266;236033;-57
2023/02/10 02:34:18;;;;;;;56.20;22.80;;;;;;;-3.59;74.05;101931.71;106593;1262;25631;-56
2023/02/10 02:36:54;;;;;;;58.10;22.50;;;;;;;-3.61;73.92;101937.80;106457;1263;23022;-57
2023/02/10 02:39:27;;;;;;;60.50;24.40;;;;;;;-3.64;73.83;101940.77;106481;1263;24819;-54
2023/02/10 02:42:19;;;;;;;55.70;22.10;;;;;;;-3.68;73.86;101945.00;106429;1274;22623;-57
2023/02/10 02:44:54;;;;;;;52.10;21.80;;;;;;;-3.73;73.69;101944.30;106461;1275;22755;-58
2023/02/10 02:47:55;;;;;;;59.30;21.90;;;;;;;-3.78;74.00;101945.00;106503;1262;22685;-58
2023/02/10 02:50:34;;;;;;;56.50;21.40;;;;;;;-3.81;74.12;101941.94;106616;1277;25565;-56
2023/02/10 02:53:19;;;;;;;55.70;21.50;;;;;;;-3.82;74.13;101939.23;106681;1277;22727;-57
2023/02/10 02:56:00;;;;;;;54.40;20.00;;;;;;;-3.83;74.11;101938.65;106563;1277;22974;-57
2023/02/10 02:58:44;;;;;;;51.90;20.00;;;;;;;-3.84;74.16;101935.88;106635;1268;25473;-57
2023/02/10 03:01:21;;;;;;;52.10;20.80;;;;;;;-3.88;74.18;101927.83;106536;1273;22563;-56
2023/02/10 03:03:52;;;;;;;51.70;19.30;;;;;;;-3.90;74.30;101923.77;106482;1271;26770;-57
2023/02/10 03:06:23;;;;;;;50.00;18.60;;;;;;;-3.91;74.20;101924.66;106544;1277;22611;-56
2023/02/10 03:08:55;;;;;;;49.30;18.40;;;;;;;-3.95;74.27;101925.32;106646;1270;25484;-57
2023/02/10 03:11:26;;;;;;;50.80;17.90;;;;;;;-3.98;74.29;101929.50;107019;1256;22604;-56
2023/02/10 03:13:57;;;;;;;44.10;16.80;;;;;;;-4.02;74.41;101931.02;107060;1270;22566;-58
2023/02/10 03:16:28;;;;;;;43.20;17.80;;;;;;;-4.04;74.47;101931.24;106879;1266;22602;-54
2023/02/10 03:19:00;;;;;;;41.40;17.80;;;;;;;-4.07;74.40;101929.98;106959;1264;22596;-57
2023/02/10 03:21:31;;;;;;;42.10;15.80;;;;;;;-4.10;74.47;101933.80;106951;1263;24239;-57
2023/02/10 03:24:02;;;;;;;44.20;15.90;;;;;;;-4.10;74.72;101934.17;107090;1257;25455;-56
2023/02/10 03:26:34;;;;;;;40.40;16.90;;;;;;;-4.11;74.90;101940.71;106937;1264;22647;-55
2023/02/10 03:29:05;;;;;;;40.20;15.50;;;;;;;-4.11;74.93;101942.73;107061;1271;22790;-54
2023/02/10 03:31:36;;;;;;;39.50;15.80;;;;;;;-4.11;75.05;101949.65;107155;1270;24210;-57
2023/02/10 03:34:07;;;;;;;42.40;15.10;;;;;;;-4.11;75.21;101952.56;106932;1259;22551;-57
2023/02/10 03:36:38;;;;;;;39.20;15.00;;;;;;;-4.10;75.19;101953.66;106928;1260;22584;-56
2023/02/10 03:39:09;;;;;;;42.00;16.00;;;;;;;-4.09;75.25;101953.92;106990;1270;23142;-57
2023/02/10 03:41:40;;;;;;;44.30;15.10;;;;;;;-4.08;75.29;101957.39;106978;1267;22803;-56
2023/02/10 03:44:12;;;;;;;40.00;14.40;;;;;;;-4.07;75.30;101960.45;107011;1256;24308;-56
2023/02/10 03:46:43;;;;;;;38.20;15.00;;;;;;;-4.07;75.43;101961.94;107178;1271;22558;-58
2023/02/10 03:49:14;;;;;;;42.70;15.20;;;;;;;-4.07;75.52;101961.47;106980;1272;22629;-58
2023/02/10 03:51:45;;;;;;;43.10;15.10;;;;;;;-4.07;75.50;101960.76;106972;1263;24242;-55
2023/02/10 03:54:16;;;;;;;43.70;14.90;;;;;;;-4.08;75.49;101957.09;107016;1259;22638;-57
2023/02/10 03:56:47;;;;;;;49.50;16.00;;;;;;;-4.07;75.69;101958.90;107092;1269;24246;-57
2023/02/10 03:59:18;;;;;;;41.60;15.10;;;;;;;-4.06;75.60;101963.52;106954;1260;22843;-56
2023/02/10 04:01:49;;;;;;;38.40;14.80;;;;;;;-4.05;75.65;101968.45;107105;1272;24538;-56
2023/02/10 04:04:20;;;;;;;41.90;15.50;;;;;;;-4.05;75.58;101972.83;106964;1269;24324;-57
2023/02/10 04:06:52;;;;;;;38.50;14.80;;;;;;;-4.04;75.64;101974.50;107028;1266;22820;-57
2023/02/10 04:09:23;;;;;;;44.60;16.60;;;;;;;-4.03;75.63;101970.48;106994;1264;22556;-58
2023/02/10 04:11:54;;;;;;;40.90;14.90;;;;;;;-4.04;75.52;101971.88;107266;1256;23124;-58
2023/02/10 04:14:25;;;;;;;47.50;16.90;;;;;;;-4.04;75.57;101969.47;107110;1264;25448;-55
2023/02/10 04:16:56;;;;;;;44.20;18.90;;;;;;;-4.04;75.58;101968.61;107012;1272;25642;-58
2023/02/10 04:19:27;;;;;;;47.00;18.40;;;;;;;-4.03;75.68;101969.87;107280;1267;22692;-58
2023/02/10 04:21:58;;;;;;;53.30;17.60;;;;;;;-4.04;75.60;101971.88;106962;1272;22678;-57
2023/02/10 04:24:29;;;;;;;42.10;16.00;;;;;;;-4.05;75.59;101974.08;106953;1264;22586;-55
2023/02/10 04:27:00;;;;;;;41.90;14.80;;;;;;;-4.05;75.75;101980.48;106987;1259;22777;-56
2023/02/10 04:29:31;;;;;;;43.80;17.10;;;;;;;-4.05;75.63;101983.90;107022;1267;22556;-57
2023/02/10 04:32:02;;;;;;;38.50;14.70;;;;;;;-4.06;75.55;101979.73;106949;1272;22602;-56
2023/02/10 04:34:34;;;;;;;45.70;16.80;;;;;;;-4.07;75.75;101980.88;106915;1271;25680;-56
2023/02/10 04:37:05;;;;;;;41.60;14.90;;;;;;;-4.06;75.68;101979.18;107011;1264;22689;-53
2023/02/10 04:39:36;;;;;;;42.00;16.10;;;;;;;-4.07;75.64;101979.32;107117;1256;24421;-57
2023/02/10 04:42:07;;;;;;;40.70;14.60;;;;;;;-4.08;75.72;101972.88;107007;1272;25647;-55
2023/02/10 04:44:38;;;;;;;39.20;16.10;;;;;;;-4.10;75.78;101975.42;106971;1264;22962;-56
2023/02/10 04:47:09;;;;;;;43.40;15.90;;;;;;;-4.10;75.93;101974.39;106998;1264;25051;-57
2023/02/10 04:49:40;;;;;;;48.20;14.70;;;;;;;-4.09;75.98;101978.86;107026;1257;22639;-61
2023/02/10 04:52:12;;;;;;;40.00;14.90;;;;;;;-4.10;75.95;101980.71;107008;1256;22572;-54
2023/02/10 04:54:43;;;;;;;43.00;13.80;;;;;;;-4.11;75.87;101978.58;106977;1260;24242;-57
2023/02/10 04:57:14;;;;;;;43.80;15.40;;;;;;;-4.11;75.85;101977.24;106972;1269;22601;-57
2023/02/10 04:59:45;;;;;;;39.00;13.50;;;;;;;-4.12;76.10;101982.42;107014;1270;26824;-57
2023/02/10 05:02:16;;;;;;;41.40;13.50;;;;;;;-4.12;76.13;101981.10;106907;1264;22637;-56
2023/02/10 05:04:47;;;;;;;41.00;15.20;;;;;;;-4.12;76.13;101987.27;107215;1263;22549;-56
2023/02/10 05:07:18;;;;;;;43.00;14.60;;;;;;;-4.12;76.12;101985.78;107101;1254;22645;-53
2023/02/10 05:09:49;;;;;;;39.40;14.60;;;;;;;-4.12;76.04;101981.91;106933;1269;22546;-57
2023/02/10 05:12:20;;;;;;;38.10;14.60;;;;;;;-4.12;76.16;101980.09;106973;1269;22589;-56
2023/02/10 05:14:51;;;;;;;38.70;13.40;;;;;;;-4.13;76.25;101978.52;106942;1270;22671;-55
2023/02/10 05:17:22;;;;;;;37.90;14.40;;;;;;;-4.13;76.25;101981.62;106943;1271;23250;-57
2023/02/10 05:19:53;;;;;;;41.60;15.10;;;;;;;-4.12;76.24;101976.05;107325;1269;25584;-57
2023/02/10 05:22:29;;;;;;;47.50;14.70;;;;;;;-4.12;76.39;101975.02;106942;1260;24351;-63
2023/02/10 05:25:00;;;;;;;41.00;14.30;;;;;;;-4.12;76.48;101980.56;107005;1257;25428;-58
2023/02/10 05:27:31;;;;;;;38.40;13.00;;;;;;;-4.12;76.42;101991.33;107033;1263;22546;-55
2023/02/10 05:30:03;;;;;;;38.50;14.00;;;;;;;-4.11;76.52;101989.78;107280;1270;24725;-57
2023/02/10 05:32:35;;;;;;;38.20;15.40;;;;;;;-4.10;76.68;101995.29;110858;1264;22351;-58
2023/02/10 05:35:06;;;;;;;42.80;14.10;;;;;;;-4.06;76.68;101991.33;107116;1271;23310;-57
2023/02/10 05:37:37;;;;;;;36.20;13.60;;;;;;;-4.03;76.86;101990.06;110042;1269;22565;-55
2023/02/10 05:40:11;;;;;;;41.70;14.00;;;;;;;-3.98;76.91;101986.56;106726;1264;22577;-56
2023/02/10 05:42:42;;;;;;;37.00;13.60;;;;;;;-3.91;76.98;101993.10;107527;1256;22682;-56
2023/02/10 05:45:13;;;;;;;37.20;13.80;;;;;;;-3.85;77.14;101995.56;106984;1251;25447;-56
2023/02/10 05:47:44;;;;;;;37.20;13.40;;;;;;;-3.78;77.33;102009.30;107069;1269;24316;-57
2023/02/10 05:50:15;;;;;;;37.30;14.30;;;;;;;-3.70;77.49;102018.93;107087;1264;24317;-55
2023/02/10 05:52:47;;;;;;;38.00;13.90;;;;;;;-3.61;77.50;102021.40;107289;1271;26412;-57
2023/02/10 05:55:18;;;;;;;38.80;14.70;;;;;;;-3.52;77.46;102017.55;108489;1264;25530;-58
2023/02/10 05:57:50;;;;;;;38.70;13.50;;;;;;;-3.43;77.31;102017.23;106877;1266;22634;-59
2023/02/10 06:00:22;;;;;;;37.30;14.10;;;;;;;-3.34;77.22;102019.23;107255;1270;22634;-53
2023/02/10 06:02:53;;;;;;;32.90;12.80;;;;;;;-3.25;77.25;102021.46;107121;1270;24253;-53
2023/02/10 06:05:25;;;;;;;39.70;14.90;;;;;;;-3.18;77.21;102022.80;106976;1264;25500;-57
2023/02/10 06:07:55;;;;;;;37.80;14.90;;;;;;;-3.12;77.30;102023.14;106997;1267;24233;-57
2023/02/10 06:10:27;;;;;;;37.20;12.70;;;;;;;-3.03;77.24;102022.88;106969;1264;24218;-57
2023/02/10 06:12:58;;;;;;;32.60;11.80;;;;;;;-2.96;77.32;102027.98;106935;1271;22705;-55
2023/02/10 06:15:29;;;;;;;39.10;14.40;;;;;;;-2.91;77.32;102030.13;106996;1260;22704;-56
2023/02/10 06:17:59;;;;;;;39.10;12.70;;;;;;;-2.85;77.25;102034.91;106970;1266;22677;-58
2023/02/10 06:20:31;;;;;;;34.30;12.70;;;;;;;-2.78;77.17;102038.79;106908;1271;24352;-57
2023/02/10 06:23:02;;;;;;;41.60;15.10;;;;;;;-2.71;77.02;102041.48;107028;1270;22532;-53
2023/02/10 06:25:35;;;;;;;43.20;15.00;;;;;;;-2.64;76.92;102047.38;107101;1260;23138;-57
2023/02/10 06:28:06;;;;;;;40.30;14.60;;;;;;;-2.59;76.95;102052.92;106976;1268;22645;-57
2023/02/10 06:30:37;;;;;;;40.80;16.10;;;;;;;-2.53;76.84;102050.38;106898;1264;24131;-55
2023/02/10 06:33:08;;;;;;;56.10;19.60;;;;;;;-2.48;76.89;102056.77;106953;1271;22585;-58
2023/02/10 06:35:39;;;;;;;49.50;16.80;;;;;;;-2.42;76.78;102058.89;106972;1271;24377;-54
2023/02/10 06:38:11;;;;;;;40.30;14.80;;;;;;;-2.37;76.77;102061.54;107200;1271;22562;-58
2023/02/10 06:40:42;;;;;;;42.70;14.10;;;;;;;-2.31;76.70;102063.66;107021;1272;24303;-56
2023/02/10 06:43:13;;;;;;;48.20;17.70;;;;;;;-2.25;76.58;102060.77;106869;1269;25508;-58
2023/02/10 06:45:44;;;;;;;41.30;15.10;;;;;;;-2.19;76.44;102058.92;106923;1269;22706;-54
2023/02/10 06:48:15;;;;;;;45.50;16.40;;;;;;;-2.13;76.35;102059.70;107159;1270;22705;-58
2023/02/10 06:50:46;;;;;;;41.50;15.70;;;;;;;-2.08;76.36;102060.39;107017;1272;22655;-58
2023/02/10 06:53:17;;;;;;;38.70;13.70;;;;;;;-2.03;76.27;102060.91;107010;1264;24236;-58
2023/02/10 06:55:48;;;;;;;42.40;15.20;;;;;;;-1.99;76.19;102060.52;106971;1270;22558;-54
2023/02/10 06:58:19;;;;;;;35.20;14.50;;;;;;;-1.94;76.18;102067.10;107173;1263;24210;-58
2023/02/10 07:00:50;;;;;;;43.60;16.10;;;;;;;-1.89;76.07;102065.69;107085;1265;22640;-55
2023/02/10 07:03:21;;;;;;;43.40;16.70;;;;;;;-1.83;75.90;102064.59;106943;1271;24335;-56
2023/02/10 07:05:52;;;;;;;48.90;19.50;;;;;;;-1.76;75.93;102062.91;107019;1263;24353;-57
2023/02/10 07:08:23;;;;;;;45.40;16.70;;;;;;;-1.70;75.80;102063.14;106954;1263;25512;-56
2023/02/10 07:10:54;;;;;;;41.00;14.20;;;;;;;-1.64;75.77;102065.17;107117;1271;22565;-58
2023/02/10 07:13:25;;;;;;;37.70;13.10;;;;;;;-1.57;75.79;102066.73;106910;1265;22604;-56
2023/02/10 07:15:56;;;;;;;33.60;12.00;;;;;;;-1.53;75.63;102064.59;106939;1269;23402;-57
2023/02/10 07:18:29;;;;;;;33.60;12.90;;;;;;;-1.47;75.35;102068.76;106885;1270;22600;-58
2023/02/10 07:21:00;;;;;;;37.60;12.10;;;;;;;-1.41;75.36;102072.89;107077;1266;23020;-58
2023/02/10 07:23:31;;;;;;;30.90;12.00;;;;;;;-1.35;75.14;102079.59;106955;1264;24224;-59
2023/02/10 07:26:02;;;;;;;33.30;12.20;;;;;;;-1.30;75.12;102082.08;106905;1264;22843;-57
2023/02/10 07:28:34;;;;;;;34.00;13.30;;;;;;;-1.23;75.09;102082.46;106960;1264;22593;-58
2023/02/10 07:31:05;;;;;;;34.40;11.90;;;;;;;-1.18;75.07;102081.66;107122;1271;22590;-57
2023/02/10 07:33:36;;;;;;;34.90;12.40;;;;;;;-1.12;74.82;102083.86;106928;1261;24360;-58
2023/02/10 07:36:08;;;;;;;30.70;12.20;;;;;;;-1.06;74.75;102086.44;106955;1272;22684;-58
2023/02/10 07:38:40;;;;;;;35.00;12.50;;;;;;;-1.00;74.57;102087.34;107097;1269;22626;-57
2023/02/10 07:41:11;;;;;;;33.20;12.30;;;;;;;-0.94;74.44;102095.39;107171;1271;24344;-56
2023/02/10 07:43:42;;;;;;;36.90;14.20;;;;;;;-0.89;74.36;102100.54;106998;1264;24303;-57
2023/02/10 07:46:14;;;;;;;34.30;12.70;;;;;;;-0.84;74.40;102104.81;106880;1263;24313;-56
2023/02/10 07:48:45;;;;;;;37.20;12.20;;;;;;;-0.78;74.40;102107.34;107039;1271;23017;-58
2023/02/10 07:51:17;;;;;;;33.30;11.70;;;;;;;-0.74;74.43;102108.85;106973;1264;23143;-57
2023/02/10 07:53:48;;;;;;;31.50;13.00;;;;;;;-0.70;74.32;102105.36;106985;1270;25483;-58
2023/02/10 07:56:19;;;;;;;36.60;13.40;;;;;;;-0.66;74.29;102095.88;106976;1272;24336;-57
2023/02/10 07:58:50;;;;;;;34.70;13.10;;;;;;;-0.63;74.42;102085.91;106963;1272;22542;-57
2023/02/10 08:01:21;;;;;;;39.40;14.70;;;;;;;-0.59;74.40;102082.80;106946;1270;26121;-55
2023/02/10 08:03:52;;;;;;;34.00;13.90;;;;;;;-0.54;74.50;102086.73;106942;1256;23143;-57
2023/02/10 08:06:24;;;;;;;34.60;12.40;;;;;;;-0.48;74.57;102090.56;107017;1267;23696;-59
2023/02/10 08:08:55;;;;;;;43.80;16.10;;;;;;;-0.42;74.49;102092.31;107103;1260;22599;-58
2023/02/10 08:11:26;;;;;;;36.90;14.30;;;;;;;-0.37;74.37;102093.00;106956;1264;22563;-57
2023/02/10 08:13:57;;;;;;;38.70;13.00;;;;;;;-0.32;74.63;102088.69;106988;1271;22785;-54
2023/02/10 08:16:29;;;;;;;34.20;13.70;;;;;;;-0.27;74.63;102090.14;107014;1264;24186;-59
2023/02/10 08:19:00;;;;;;;39.20;15.00;;;;;;;-0.21;74.90;102086.65;107292;1266;22649;-57
2023/02/10 08:21:31;;;;;;;43.60;14.50;;;;;;;-0.14;74.77;102086.64;106849;1267;23115;-57
2023/02/10 08:24:02;;;;;;;44.60;13.60;;;;;;;-0.07;74.78;102086.39;106982;1272;24294;-54
2023/02/10 08:26:34;;;;;;;39.10;14.00;;;;;;;0.00;74.98;102094.38;107367;1271;23139;-57
2023/02/10 08:29:05;;;;;;;37.40;14.10;;;;;;;0.08;74.84;102096.09;107157;1271;22529;-61
2023/02/10 08:31:36;;;;;;;33.00;13.40;;;;;;;0.13;74.78;102091.25;107219;1264;24011;-54
2023/02/10 08:34:13;;;;;;;41.20;15.10;;;;;;;0.20;74.67;102092.71;107120;1265;22538;-58
2023/02/10 08:36:45;;;;;;;41.10;14.10;;;;;;;0.24;74.81;102091.70;106992;1264;25470;-56
2023/02/10 08:39:16;;;;;;;40.30;14.80;;;;;;;0.29;74.87;102086.38;106984;1271;23002;-56
2023/02/10 08:41:47;;;;;;;42.60;15.90;;;;;;;0.34;74.91;102087.88;107080;1271;25391;-56
2023/02/10 08:44:18;;;;;;;40.60;14.20;;;;;;;0.39;74.89;102092.69;107038;1258;24359;-55
2023/02/10 08:46:50;;;;;;;38.70;14.40;;;;;;;0.44;74.75;102097.40;106899;1272;22691;-56
2023/02/10 08:49:24;;;;;;;39.30;14.70;;;;;;;0.48;74.67;102095.83;106980;1269;22531;-55
2023/02/10 08:51:56;;;;;;;45.50;14.50;;;;;;;0.52;74.79;102098.18;106961;1257;22524;-55
2023/02/10 08:54:27;;;;;;;39.00;15.40;;;;;;;0.56;74.70;102104.92;107044;1264;23084;-55
2023/02/10 08:56:58;;;;;;;37.20;14.40;;;;;;;0.60;74.75;102109.39;106893;1260;25274;-57
2023/02/10 08:59:30;;;;;;;42.80;16.20;;;;;;;0.64;74.84;102111.34;107027;1267;22601;-55
2023/02/10 09:02:01;;;;;;;38.90;14.50;;;;;;;0.69;74.94;102106.88;107033;1271;22520;-56
2023/02/10 09:04:32;;;;;;;51.30;17.10;;;;;;;0.73;74.97;102100.42;106916;1271;22785;-57
2023/02/10 09:07:03;;;;;;;45.30;18.00;;;;;;;0.77;75.10;102096.18;107061;1264;25685;-56
2023/02/10 09:09:40;;;;;;;42.90;16.50;;;;;;;0.83;75.26;102091.55;106985;1257;24216;-55
2023/02/10 09:12:12;;;;;;;41.40;16.10;;;;;;;0.87;75.34;102094.99;106959;1264;26213;-54
2023/02/10 09:14:44;;;;;;;40.60;15.30;;;;;;;0.90;75.56;102097.33;107003;1267;24104;-57
2023/02/10 09:17:15;;;;;;;49.70;18.90;;;;;;;0.95;75.67;102103.38;107031;1270;24183;-58
2023/02/10 09:19:46;;;;;;;44.70;16.30;;;;;;;1.01;75.88;102106.77;107102;1271;23940;-57
2023/02/10 09:22:17;;;;;;;43.00;15.20;;;;;;;1.06;75.88;102109.44;106990;1270;22521;-57
2023/02/10 09:24:49;;;;;;;52.60;19.70;;;;;;;1.12;76.08;102109.63;106942;1254;22651;-55
2023/02/10 09:27:21;;;;;;;49.00;18.30;;;;;;;1.17;76.16;102109.78;107074;1271;22579;-58
2023/02/10 09:29:52;;;;;;;48.40;17.30;;;;;;;1.23;76.27;102117.33;106958;1267;22528;-57
2023/02/10 09:32:23;;;;;;;45.00;15.30;;;;;;;1.27;76.29;102113.84;106952;1271;22518;-57
2023/02/10 09:34:54;;;;;;;54.10;19.20;;;;;;;1.31;76.41;102113.45;107044;1272;22551;-54
2023/02/10 09:37:25;;;;;;;44.00;17.20;;;;;;;1.36;76.49;102109.67;106916;1257;22564;-56
2023/02/10 09:39:57;;;;;;;43.90;16.20;;;;;;;1.42;76.60;102109.50;106962;1264;22680;-59
2023/02/10 09:42:42;;;;;;;42.10;16.40;;;;;;;1.48;76.74;102121.55;106943;1264;25343;-55
2023/02/10 09:45:19;;;;;;;38.70;14.60;;;;;;;1.52;76.70;102123.73;107028;1267;24441;-58
2023/02/10 09:47:53;;;;;;;40.30;15.90;;;;;;;1.57;76.70;102117.43;106935;1264;22566;-54
2023/02/10 09:50:49;;;;;;;35.60;13.90;;;;;;;1.61;76.86;102120.56;107120;1264;22529;-58
2023/02/10 09:53:23;;;;;;;40.30;14.20;;;;;;;1.66;76.87;102127.23;106953;1264;24230;-55
2023/02/10 09:55:58;;;;;;;35.00;13.00;;;;;;;1.70;76.88;102129.33;107002;1272;22807;-56
2023/02/10 09:58:34;;;;;;;35.50;12.10;;;;;;;1.76;77.07;102127.59;107321;1260;24239;-58
2023/02/10 10:01:15;;;;;;;39.10;13.60;;;;;;;1.82;77.13;102130.27;107189;1267;24185;-58
2023/02/10 10:03:51;;;;;;;41.80;12.40;;;;;;;1.90;77.15;102131.40;106983;1264;23380;-57
2023/02/10 10:06:29;;;;;;;46.20;14.20;;;;;;;1.97;77.10;102133.06;106996;1258;22520;-57
2023/02/10 10:09:13;;;;;;;38.10;13.70;;;;;;;2.04;77.06;102136.30;106974;1257;22979;-56
2023/02/10 10:11:47;;;;;;;38.00;14.00;;;;;;;2.11;77.01;102141.02;107003;1271;22623;-57
2023/02/10 10:14:22;;;;;;;36.50;13.20;;;;;;;2.18;77.02;102145.67;107084;1264;24220;-58
2023/02/10 10:17:20;;;;;;;41.90;13.70;;;;;;;2.24;77.01;102147.00;107134;1269;22870;-59
2023/02/10 10:20:05;;;;;;;38.40;12.90;;;;;;;2.31;76.99;102143.39;106964;1272;25935;-57
2023/02/10 10:22:47;;;;;;;33.80;11.10;;;;;;;2.37;76.96;102138.09;107026;1271;22573;-57
2023/02/10 10:25:41;;;;;;;38.80;13.30;;;;;;;2.42;76.91;102141.54;107145;1264;22574;-55
2023/02/10 10:28:25;;;;;;;44.90;12.80;;;;;;;2.46;76.98;102137.80;106837;1272;22538;-55
2023/02/10 10:31:00;;;;;;;37.70;12.90;;;;;;;2.51;76.85;102131.86;106958;1257;22546;-58
2023/02/10 10:33:37;;;;;;;45.40;12.90;;;;;;;2.54;76.80;102126.68;107010;1267;22531;-57
2023/02/10 10:36:14;;;;;;;37.50;13.50;;;;;;;2.56;76.86;102128.91;107199;1257;25275;-58
2023/02/10 10:38:50;;;;;;;39.20;14.70;;;;;;;2.59;76.75;102125.88;107025;1257;22527;-58
2023/02/10 10:41:24;;;;;;;43.90;15.30;;;;;;;2.61;76.86;102122.59;106952;1270;25328;-57
2023/02/10 10:43:57;;;;;;;43.10;13.40;;;;;;;2.65;76.85;102126.02;106976;1272;22563;-57
2023/02/10 10:46:35;;;;;;;38.50;14.20;;;;;;;2.69;76.71;102126.60;107236;1260;24254;-55
2023/02/10 10:49:06;;;;;;;43.20;14.60;;;;;;;2.74;76.73;102129.55;106976;1269;22532;-58
2023/02/10 10:51:38;;;;;;;39.00;13.40;;;;;;;2.79;76.82;102133.16;107029;1257;23903;-57
2023/02/10 10:54:16;;;;;;;38.20;13.00;;;;;;;2.83;76.51;102123.73;106975;1260;22543;-54
2023/02/10 10:56:51;;;;;;;34.20;12.80;;;;;;;2.88;76.62;102114.71;107027;1271;25333;-56
2023/02/10 10:59:28;;;;;;;38.90;13.60;;;;;;;2.93;76.50;102107.98;106973;1264;25401;-57
2023/02/10 11:02:00;;;;;;;32.10;12.50;;;;;;;2.95;76.30;102104.21;107029;1272;22528;-57
2023/02/10 11:04:33;;;;;;;34.50;11.90;;;;;;;2.99;76.43;102107.55;107166;1256;22528;-56
2023/02/10 11:07:12;;;;;;;35.50;11.20;;;;;;;3.05;76.40;102107.05;107003;1264;22592;-55
2023/02/10 11:09:50;;;;;;;40.20;12.70;;;;;;;3.08;76.09;102104.95;107026;1272;22539;-57
2023/02/10 11:12:26;;;;;;;33.50;11.00;;;;;;;3.09;75.74;102104.94;107106;1272;22525;-56
2023/02/10 11:14:58;;;;;;;46.00;14.60;;;;;;;3.09;75.64;102105.97;106897;1264;24203;-56
2023/02/10 11:17:35;;;;;;;33.00;12.50;;;;;;;3.08;75.74;102096.90;107062;1257;25411;-56
2023/02/10 11:20:22;;;;;;;42.10;15.80;;;;;;;3.09;75.51;102095.79;107160;1258;22540;-57
2023/02/10 11:23:00;;;;;;;65.60;28.10;;;;;;;3.09;75.36;102093.58;106929;1272;24374;-56
2023/02/10 11:25:33;;;;;;;57.90;22.30;;;;;;;3.08;75.49;102094.86;107112;1264;22532;-57
2023/02/10 11:28:06;;;;;;;51.10;20.70;;;;;;;3.11;75.55;102098.26;106951;1264;22531;-56
2023/02/10 11:30:39;;;;;;;54.90;24.30;;;;;;;3.12;75.52;102096.77;106976;1271;22531;-58
2023/02/10 11:33:22;;;;;;;42.90;16.90;;;;;;;3.14;75.70;102089.77;107032;1264;22531;-59